Aérodrome :
LOGIN :

S'inscrire | Disclaimer

   EN    FR    IT 

 










Légende :    VFR   VFR Marginal   IFR   IFR Intensif   IFR Très Intensif
Visi : 
Plafond : 
>= 8 km
>= 3000ft
5 à 8 km
1000 à 3000 ft
1500m à 5 km
500 à 1000 ft
800 à 1500m
200 à 500 ft
< 800m
< 200 ft
Symboles :   Orages  Brouillard  Fortes neiges  Fortes précipitations  Vent > 20 kt
SIGMETs :   Divers  Orages  Givrage  Turbulence  Onde Orograph.  Cendres Volcan.






- Altitude de l'aérodrome : 274 ft
- Code IATA : PUY


LDPL - Pula

DERNIER METAR :
  • 060500Z 07003KT 9999 BKN040 05/04 Q1024 NOSIG

METARs EXPIRÉS :
  • 060430Z 06004KT 9999 SCT040 06/04 Q1024 NOSIG
  • 060400Z 05004KT 9999 SCT040 06/04 Q1024 NOSIG
  • 060330Z 06003KT 9999 SCT040 06/04 Q1025 NOSIG
  • 060300Z 06003KT 9999 SCT040 08/05 Q1025 NOSIG
  • 060230Z 06003KT 9999 BKN040 07/04 Q1025

TAF TAF LDPL
Valide du 06 à 00h jusqu'au 07 à 00h UTC


052325Z 0600/0700 08006KT 9999 BKN040 TX12/0613Z TN07/0623Z
BECMG 0602/0604 VRB02KT
PROB30
TEMPO 0606/0618 BKN010
TEMPO 0618/0700 BKN005



MET'MAP, la Météo Aéronautique d'un coup d'oeil ! - Copyright ORBIFLY Décembre 2007 - Disclaimer

ORBIFLY MET'MAP TEAM :

Programmation & Développement : Alexandra Zaïnal
Sur une idée originale de : Baudouin d'Aumeries
Assistance à la programmation : Marc-Olivier Méhu
Soutien technique & logistique : Manuel Goepfert

Contact : metmap@orbifly.com




SOURCES & CREDITS :

   NOAA